Time;durP1;ratioP1;P1;durP2;ratioP2;P2;SDS_P1;SDS_P2;PMS_P1;PMS_P2;Temp;Humidity;BMP_temperature;BMP_pressure;BME280_temperature;BME280_humidity;BME280_pressure;Samples;Min_cycle;Max_cycle;Signal;HPM_P1;HPM_P2
2022/09/17 00:00:40;;;;;;;1.90;1.00;;;13.90;44.70;;;;;;5025100;28;20455;-70
2022/09/17 00:03:08;;;;;;;2.00;1.07;;;13.30;48.10;;;;;;5028545;28;20428;-68
2022/09/17 00:05:36;;;;;;;2.00;1.00;;;13.30;47.10;;;;;;5025805;28;20807;-70
2022/09/17 00:08:04;;;;;;;2.00;1.10;;;13.70;45.70;;;;;;5026543;28;20473;-71
2022/09/17 00:10:30;;;;;;;2.00;1.00;;;14.30;44.80;;;;;;5029723;28;20455;-70
2022/09/17 00:12:56;;;;;;;2.00;1.00;;;14.30;44.00;;;;;;5029343;28;20982;-70
2022/09/17 00:15:22;;;;;;;2.00;1.10;;;14.60;43.70;;;;;;5025893;28;20434;-70
2022/09/17 00:17:53;;;;;;;1.90;1.00;;;15.10;43.20;;;;;;5023894;28;20190;-70
2022/09/17 00:20:19;;;;;;;2.00;1.07;;;15.40;41.60;;;;;;5023401;28;20546;-71
2022/09/17 00:22:44;;;;;;;2.00;1.10;;;15.70;39.30;;;;;;5029542;28;20416;-70
2022/09/17 00:25:10;;;;;;;2.00;1.10;;;15.70;38.20;;;;;;5026911;28;20295;-71
2022/09/17 00:27:35;;;;;;;1.90;1.00;;;16.20;39.00;;;;;;5029851;28;20183;-72
2022/09/17 00:30:01;;;;;;;2.00;1.10;;;15.30;40.10;;;;;;5030677;28;20211;-71
2022/09/17 00:32:27;;;;;;;1.90;1.00;;;15.40;40.10;;;;;;5030893;28;20271;-70
2022/09/17 00:34:52;;;;;;;1.90;1.10;;;15.60;39.60;;;;;;5025954;28;20549;-70
2022/09/17 00:37:19;;;;;;;1.90;1.10;;;16.30;39.40;;;;;;5022753;28;20435;-70
2022/09/17 00:39:44;;;;;;;1.90;1.00;;;15.80;40.20;;;;;;5026234;28;20239;-70
2022/09/17 00:42:14;;;;;;;1.90;1.00;;;15.70;40.80;;;;;;5030591;28;20435;-71
2022/09/17 00:44:49;;;;;;;1.90;1.00;;;15.90;39.00;;;;;;5029988;28;20845;-71
2022/09/17 00:47:35;;;;;;;1.90;1.00;;;15.70;39.30;;;;;;5025317;28;20442;-71
2022/09/17 00:50:14;;;;;;;1.90;1.00;;;15.80;39.10;;;;;;5025400;28;20463;-69
2022/09/17 00:52:43;;;;;;;1.90;1.00;;;15.80;40.30;;;;;;5027887;28;20827;-71
2022/09/17 00:55:12;;;;;;;2.00;1.10;;;15.60;39.90;;;;;;5028493;28;20447;-70
2022/09/17 00:57:40;;;;;;;1.90;1.10;;;15.60;39.40;;;;;;5022697;28;20445;-71
2022/09/17 01:00:07;;;;;;;2.00;1.10;;;15.60;39.10;;;;;;5028592;28;20451;-70
2022/09/17 01:02:33;;;;;;;2.00;1.10;;;15.70;39.00;;;;;;5020625;28;20459;-70
2022/09/17 01:04:59;;;;;;;2.00;1.20;;;15.50;40.20;;;;;;5024515;28;20435;-69
2022/09/17 01:07:47;;;;;;;1.90;1.10;;;15.60;40.10;;;;;;5021662;28;20818;-71
2022/09/17 01:10:28;;;;;;;1.90;1.00;;;15.70;39.70;;;;;;5028870;28;20776;-71
2022/09/17 01:13:10;;;;;;;2.00;1.10;;;15.50;40.20;;;;;;5029503;28;20427;-70
2022/09/17 01:15:41;;;;;;;1.97;1.07;;;15.60;39.90;;;;;;5022507;28;20420;-71
2022/09/17 01:18:32;;;;;;;1.90;1.10;;;15.50;39.80;;;;;;5025329;28;20495;-71
2022/09/17 01:21:10;;;;;;;1.80;1.00;;;15.50;41.70;;;;;;5027040;28;20462;-71
2022/09/17 01:23:51;;;;;;;2.00;1.10;;;15.70;41.20;;;;;;5024401;28;20566;-69
2022/09/17 01:26:37;;;;;;;1.90;1.00;;;15.70;39.70;;;;;;5031455;28;20432;-70
2022/09/17 01:29:25;;;;;;;1.90;1.10;;;15.90;39.80;;;;;;5027281;28;20953;-70
2022/09/17 01:32:03;;;;;;;1.90;1.10;;;15.50;39.30;;;;;;5030953;28;20478;-70
2022/09/17 01:34:48;;;;;;;1.93;1.10;;;15.40;39.10;;;;;;5020831;28;20435;-71
2022/09/17 01:37:20;;;;;;;1.90;1.00;;;15.50;39.70;;;;;;5031370;28;20493;-69
2022/09/17 01:40:17;;;;;;;1.83;1.00;;;15.30;40.20;;;;;;5030776;28;20423;-70
2022/09/17 01:43:16;;;;;;;1.90;1.00;;;15.40;39.50;;;;;;4995191;28;20486;-70
2022/09/17 01:45:49;;;;;;;1.90;1.10;;;15.50;39.50;;;;;;4997188;28;20944;-70
2022/09/17 01:48:18;;;;;;;1.83;1.00;;;15.70;38.40;;;;;;5004505;28;20457;-70
2022/09/17 01:50:46;;;;;;;1.93;1.10;;;15.10;40.00;;;;;;4992982;28;20972;-70
2022/09/17 01:53:14;;;;;;;1.80;1.00;;;15.00;41.90;;;;;;4996617;28;20819;-70
2022/09/17 01:55:44;;;;;;;1.90;1.10;;;14.80;42.20;;;;;;5005466;28;20438;-70
2022/09/17 01:58:27;;;;;;;1.90;1.00;;;14.80;40.60;;;;;;4997687;28;20437;-70
2022/09/17 02:00:58;;;;;;;2.00;1.10;;;14.60;42.00;;;;;;4998637;28;20983;-69
2022/09/17 02:03:30;;;;;;;1.90;1.00;;;14.40;42.60;;;;;;5002154;28;20441;-70
2022/09/17 02:06:05;;;;;;;1.90;1.07;;;14.20;42.90;;;;;;4998717;28;20476;-71
2022/09/17 02:08:56;;;;;;;1.90;1.00;;;14.30;43.20;;;;;;4998965;28;20459;-70
2022/09/17 02:11:22;;;;;;;1.83;1.00;;;14.50;44.40;;;;;;5000672;28;20472;-70
2022/09/17 02:14:14;;;;;;;1.90;1.00;;;14.70;41.50;;;;;;4999790;28;20441;-70
2022/09/17 02:16:49;;;;;;;2.00;1.20;;;14.90;41.60;;;;;;5000562;28;20193;-70
2022/09/17 02:19:23;;;;;;;1.90;1.10;;;15.00;41.60;;;;;;5003465;28;21173;-69
2022/09/17 02:21:56;;;;;;;1.90;1.10;;;14.40;42.40;;;;;;5027821;28;20514;-70
2022/09/17 02:24:25;;;;;;;1.90;1.10;;;14.10;44.00;;;;;;5032283;28;20858;-71
2022/09/17 02:27:00;;;;;;;1.90;1.10;;;14.50;43.30;;;;;;5025768;28;20448;-70
2022/09/17 02:29:34;;;;;;;1.90;1.10;;;14.50;44.50;;;;;;5027728;28;20447;-70
2022/09/17 02:32:00;;;;;;;2.00;1.20;;;14.00;44.80;;;;;;5029130;28;20497;-70
2022/09/17 02:34:28;;;;;;;2.00;1.10;;;13.90;44.90;;;;;;5021147;28;20428;-70
2022/09/17 02:36:54;;;;;;;2.00;1.20;;;14.30;45.50;;;;;;5024258;28;20427;-71
2022/09/17 02:39:20;;;;;;;2.00;1.10;;;14.20;44.10;;;;;;5028222;28;20510;-70
2022/09/17 02:41:51;;;;;;;1.93;1.10;;;13.40;46.80;;;;;;5031273;28;20522;-70
2022/09/17 02:44:30;;;;;;;2.00;1.20;;;13.30;46.70;;;;;;5027039;28;20240;-71
2022/09/17 02:47:08;;;;;;;2.00;1.20;;;13.40;47.60;;;;;;5030841;28;20481;-69
2022/09/17 02:49:42;;;;;;;2.00;1.10;;;13.40;46.80;;;;;;5028245;28;20510;-70
2022/09/17 02:52:46;;;;;;;2.03;1.20;;;13.30;46.90;;;;;;5021293;28;20466;-70
2022/09/17 02:55:50;;;;;;;2.10;1.20;;;13.10;47.40;;;;;;5018759;28;20454;-70
2022/09/17 02:58:27;;;;;;;2.00;1.10;;;13.10;48.80;;;;;;5021285;28;20435;-71
2022/09/17 03:00:56;;;;;;;2.00;1.20;;;13.10;49.40;;;;;;5023230;28;20460;-70
2022/09/17 03:03:40;;;;;;;2.10;1.20;;;12.70;49.70;;;;;;5026824;28;20470;-70
2022/09/17 03:06:05;;;;;;;2.00;1.10;;;13.00;49.20;;;;;;5029873;28;20410;-70
2022/09/17 03:08:34;;;;;;;2.00;1.10;;;12.90;49.70;;;;;;5029266;28;20457;-70
2022/09/17 03:10:59;;;;;;;2.00;1.10;;;13.00;49.70;;;;;;5028397;28;20650;-70
2022/09/17 03:13:25;;;;;;;2.00;1.00;;;13.20;48.40;;;;;;5029807;28;20439;-70
2022/09/17 03:15:50;;;;;;;2.10;1.20;;;12.70;51.00;;;;;;5023605;28;20181;-70
2022/09/17 03:18:16;;;;;;;1.93;1.03;;;12.80;51.90;;;;;;5028872;28;20664;-70
2022/09/17 03:20:41;;;;;;;2.00;1.10;;;13.60;49.20;;;;;;5016633;28;20201;-70
2022/09/17 03:23:07;;;;;;;2.10;1.20;;;12.70;51.40;;;;;;5030855;28;20262;-70
2022/09/17 03:25:33;;;;;;;2.00;1.03;;;12.80;51.20;;;;;;5032050;28;20188;-70
2022/09/17 03:27:58;;;;;;;2.00;1.10;;;12.80;52.30;;;;;;5023470;28;20189;-70
2022/09/17 03:30:24;;;;;;;2.00;1.03;;;12.70;52.80;;;;;;5027529;28;20228;-70
2022/09/17 03:32:50;;;;;;;2.00;1.10;;;12.70;53.20;;;;;;5030698;28;20666;-70
2022/09/17 03:35:15;;;;;;;1.93;1.10;;;12.90;53.10;;;;;;5029649;28;20546;-70
2022/09/17 03:37:41;;;;;;;2.00;1.10;;;13.30;51.60;;;;;;5030209;28;20173;-70
2022/09/17 03:40:07;;;;;;;2.00;1.00;;;13.50;50.20;;;;;;5030039;28;20189;-70
2022/09/17 03:42:33;;;;;;;2.00;1.17;;;13.30;50.10;;;;;;5028118;28;20465;-70
2022/09/17 03:44:59;;;;;;;2.00;1.10;;;13.80;49.00;;;;;;5029326;28;20184;-70
2022/09/17 03:47:24;;;;;;;2.10;1.20;;;13.90;47.60;;;;;;5022048;28;20177;-71
2022/09/17 03:49:51;;;;;;;2.00;1.10;;;13.90;47.80;;;;;;5022242;28;20199;-70
2022/09/17 03:52:16;;;;;;;2.00;1.10;;;14.30;47.10;;;;;;5021375;28;20209;-70
2022/09/17 03:54:42;;;;;;;1.90;1.10;;;14.40;47.00;;;;;;5027129;28;20961;-70
2022/09/17 03:57:08;;;;;;;1.90;1.10;;;13.30;49.80;;;;;;5031569;28;20208;-70
2022/09/17 03:59:34;;;;;;;2.00;1.10;;;13.80;49.80;;;;;;5025579;28;20187;-70
2022/09/17 04:02:00;;;;;;;2.10;1.20;;;14.00;50.00;;;;;;5027723;28;20672;-70
2022/09/17 04:04:25;;;;;;;2.00;1.10;;;14.10;49.60;;;;;;5015501;28;20450;-68
2022/09/17 04:06:51;;;;;;;2.10;1.17;;;13.50;49.50;;;;;;5026504;28;20561;-71
2022/09/17 04:09:16;;;;;;;2.00;1.10;;;13.50;50.50;;;;;;5028162;28;20180;-71
2022/09/17 04:11:42;;;;;;;2.00;1.10;;;14.10;49.70;;;;;;5029849;28;20700;-70
2022/09/17 04:14:07;;;;;;;2.10;1.20;;;13.90;48.60;;;;;;5025453;28;20197;-70
2022/09/17 04:16:34;;;;;;;2.00;1.10;;;13.50;50.30;;;;;;5031408;28;20259;-71
2022/09/17 04:18:59;;;;;;;1.90;1.00;;;13.90;48.60;;;;;;5023962;28;20181;-71
2022/09/17 04:21:25;;;;;;;2.00;1.10;;;14.60;46.00;;;;;;5030865;28;21088;-71
2022/09/17 04:23:50;;;;;;;2.00;1.10;;;14.30;45.50;;;;;;5022876;28;20238;-70
2022/09/17 04:26:16;;;;;;;2.10;1.20;;;14.40;45.60;;;;;;5025203;28;20303;-70
2022/09/17 04:28:42;;;;;;;2.00;1.10;;;14.60;44.80;;;;;;5030359;28;20196;-70
2022/09/17 04:31:08;;;;;;;2.00;1.03;;;14.50;43.90;;;;;;5030715;28;20204;-71
2022/09/17 04:33:33;;;;;;;2.00;1.10;;;13.70;46.50;;;;;;5027148;28;20968;-70
2022/09/17 04:35:59;;;;;;;1.90;1.00;;;13.10;49.10;;;;;;5017081;28;20181;-71
2022/09/17 04:38:24;;;;;;;1.90;1.10;;;13.20;50.20;;;;;;5030336;28;20183;-70
2022/09/17 04:40:50;;;;;;;2.00;1.10;;;13.20;49.50;;;;;;5022161;28;20204;-71
2022/09/17 04:43:16;;;;;;;2.00;1.17;;;13.60;48.60;;;;;;5021935;28;20592;-70
2022/09/17 04:45:45;;;;;;;2.00;1.10;;;13.90;48.20;;;;;;5021675;28;20726;-70
2022/09/17 04:48:11;;;;;;;1.90;1.00;;;14.40;45.00;;;;;;5026931;28;20439;-70
2022/09/17 04:50:37;;;;;;;2.00;1.10;;;14.30;46.30;;;;;;5027677;28;20479;-70
2022/09/17 04:53:02;;;;;;;2.00;1.10;;;13.60;49.60;;;;;;5032771;28;20235;-71
2022/09/17 04:55:28;;;;;;;2.00;1.10;;;12.90;51.30;;;;;;5029502;28;20201;-70
2022/09/17 04:57:54;;;;;;;1.97;1.10;;;13.00;51.00;;;;;;5022921;28;20526;-70
2022/09/17 05:00:21;;;;;;;2.00;1.20;;;13.30;50.50;;;;;;5025832;28;20200;-70
2022/09/17 05:02:49;;;;;;;2.07;1.20;;;13.60;47.70;;;;;;5031404;28;20184;-71
2022/09/17 05:05:17;;;;;;;2.00;1.10;;;13.70;47.30;;;;;;5033561;28;20437;-69
2022/09/17 05:07:42;;;;;;;2.10;1.20;;;13.70;46.70;;;;;;5031309;28;20526;-71
2022/09/17 05:10:09;;;;;;;2.00;1.10;;;14.00;46.80;;;;;;5033732;28;20974;-71
2022/09/17 05:12:35;;;;;;;1.90;1.00;;;13.90;47.40;;;;;;5027117;28;20455;-69
2022/09/17 05:15:01;;;;;;;2.00;1.10;;;14.10;46.30;;;;;;5025958;28;20965;-70
2022/09/17 05:17:27;;;;;;;1.97;1.00;;;14.40;47.20;;;;;;5032838;28;20238;-70
2022/09/17 05:19:52;;;;;;;1.93;1.07;;;14.20;46.00;;;;;;5027855;28;20447;-70
2022/09/17 05:22:19;;;;;;;1.90;1.10;;;14.10;46.20;;;;;;5029462;28;20295;-70
2022/09/17 05:24:45;;;;;;;2.00;1.07;;;14.10;46.30;;;;;;5028121;28;20190;-70
2022/09/17 05:27:11;;;;;;;1.90;1.10;;;14.50;44.70;;;;;;5030337;28;20427;-71
2022/09/17 05:29:36;;;;;;;1.90;1.00;;;14.70;44.70;;;;;;5027934;28;20593;-70
2022/09/17 05:32:06;;;;;;;2.00;1.10;;;14.60;43.50;;;;;;5022647;28;20216;-71
2022/09/17 05:34:32;;;;;;;1.93;1.10;;;14.60;44.80;;;;;;5030676;28;20185;-70
2022/09/17 05:36:57;;;;;;;2.00;1.10;;;14.10;45.70;;;;;;5025350;28;20999;-70
2022/09/17 05:39:26;;;;;;;2.10;1.20;;;14.80;45.70;;;;;;5031891;28;20173;-70
2022/09/17 05:41:52;;;;;;;1.90;1.10;;;14.90;44.70;;;;;;5026827;28;20193;-68
2022/09/17 05:44:18;;;;;;;2.00;1.10;;;14.10;45.70;;;;;;5030498;28;20807;-69
2022/09/17 05:46:45;;;;;;;1.90;1.00;;;13.90;45.00;;;;;;5032556;28;20510;-71
2022/09/17 05:49:11;;;;;;;1.90;1.10;;;13.90;46.30;;;;;;5025079;28;20440;-71
2022/09/17 05:51:37;;;;;;;2.00;1.10;;;14.20;45.70;;;;;;5021376;28;20497;-69
2022/09/17 05:54:02;;;;;;;1.90;1.10;;;14.30;44.50;;;;;;5026155;28;20457;-74
2022/09/17 05:56:28;;;;;;;2.00;1.10;;;14.40;43.60;;;;;;5030173;28;20958;-74
2022/09/17 05:58:56;;;;;;;2.00;1.10;;;14.40;43.80;;;;;;5033909;28;20176;-73
2022/09/17 06:01:22;;;;;;;2.00;1.10;;;13.70;46.60;;;;;;5022092;28;20692;-73
2022/09/17 06:03:48;;;;;;;1.90;1.10;;;14.50;45.80;;;;;;5021216;28;20439;-71
2022/09/17 06:06:14;;;;;;;1.90;1.10;;;14.70;43.60;;;;;;5021677;28;20505;-71
2022/09/17 06:08:39;;;;;;;1.90;1.10;;;14.90;43.40;;;;;;5026838;28;20649;-71
2022/09/17 06:11:06;;;;;;;2.00;1.10;;;14.50;43.30;;;;;;5023215;28;21377;-71
2022/09/17 06:13:33;;;;;;;1.90;1.00;;;14.20;44.80;;;;;;5031327;28;20226;-71
2022/09/17 06:15:59;;;;;;;1.90;1.10;;;14.10;45.20;;;;;;5022452;28;20511;-72
2022/09/17 06:18:28;;;;;;;1.90;1.00;;;14.20;44.10;;;;;;5013814;28;20420;-71
2022/09/17 06:20:55;;;;;;;2.10;1.20;;;14.40;43.30;;;;;;5016309;28;20458;-71
2022/09/17 06:23:22;;;;;;;2.00;1.10;;;14.00;43.90;;;;;;5020345;28;20526;-76
2022/09/17 06:25:56;;;;;;;2.00;1.10;;;14.30;44.50;;;;;;5021130;28;20530;-72
2022/09/17 06:28:22;;;;;;;1.90;1.00;;;13.60;46.90;;;;;;5025896;28;20431;-72
2022/09/17 06:30:48;;;;;;;1.90;1.00;;;13.60;46.10;;;;;;5029453;28;20487;-72
2022/09/17 06:33:14;;;;;;;1.97;1.10;;;14.10;45.30;;;;;;5027843;28;20528;-72
2022/09/17 06:35:40;;;;;;;2.00;1.10;;;14.30;45.20;;;;;;5027546;28;20178;-72
2022/09/17 06:38:06;;;;;;;1.90;1.10;;;14.60;43.80;;;;;;5022117;28;20448;-71
2022/09/17 06:40:31;;;;;;;2.00;1.10;;;13.90;44.40;;;;;;5026924;28;20203;-70
2022/09/17 06:42:58;;;;;;;2.00;1.20;;;14.30;42.90;;;;;;5025528;28;20231;-73
2022/09/17 06:45:25;;;;;;;1.93;1.10;;;14.40;42.00;;;;;;5021985;28;20435;-72
2022/09/17 06:47:50;;;;;;;1.90;1.00;;;13.90;45.50;;;;;;5029220;28;20445;-73
2022/09/17 06:50:16;;;;;;;1.90;1.00;;;14.00;45.00;;;;;;5029808;28;20490;-72
2022/09/17 06:52:49;;;;;;;1.90;1.10;;;13.90;45.90;;;;;;5025052;28;20197;-77
2022/09/17 06:55:15;;;;;;;1.90;1.00;;;13.90;44.40;;;;;;5023174;28;20532;-72
2022/09/17 06:57:41;;;;;;;1.90;1.00;;;13.80;45.00;;;;;;5025747;28;20442;-71
2022/09/17 07:00:08;;;;;;;2.00;1.10;;;14.00;45.40;;;;;;5020021;28;20188;-72
2022/09/17 07:02:34;;;;;;;1.93;1.10;;;13.00;46.90;;;;;;5028679;28;20567;-72
2022/09/17 07:04:59;;;;;;;2.00;1.10;;;13.40;46.60;;;;;;5022890;28;20470;-72
2022/09/17 07:07:25;;;;;;;1.87;1.10;;;13.80;46.60;;;;;;5024246;28;20628;-73
2022/09/17 07:09:52;;;;;;;2.00;1.20;;;13.90;43.80;;;;;;5029269;28;20902;-72
2022/09/17 07:12:18;;;;;;;1.90;1.10;;;14.00;43.20;;;;;;5025741;28;20208;-72
2022/09/17 07:14:44;;;;;;;1.93;1.10;;;13.80;44.10;;;;;;5026788;28;20413;-72
2022/09/17 07:17:09;;;;;;;2.00;1.10;;;13.50;45.40;;;;;;5015756;28;20421;-73
2022/09/17 07:19:35;;;;;;;1.90;1.10;;;13.70;43.90;;;;;;5026659;28;20183;-72
2022/09/17 07:22:00;;;;;;;2.00;1.20;;;13.80;45.30;;;;;;5028735;28;20301;-70
2022/09/17 07:24:26;;;;;;;1.90;1.10;;;13.60;43.90;;;;;;5031523;28;20176;-71
2022/09/17 07:26:52;;;;;;;2.00;1.10;;;14.00;44.60;;;;;;5024812;28;20185;-71
2022/09/17 07:29:17;;;;;;;1.90;1.10;;;13.70;45.90;;;;;;5025638;28;20181;-71
2022/09/17 07:31:43;;;;;;;1.90;1.00;;;13.40;45.10;;;;;;5025868;28;20248;-73
2022/09/17 07:34:09;;;;;;;1.90;1.00;;;13.10;45.80;;;;;;5022175;28;20565;-72
2022/09/17 07:36:35;;;;;;;2.00;1.10;;;12.70;48.00;;;;;;5022593;28;20659;-75
2022/09/17 07:39:00;;;;;;;2.00;1.10;;;12.40;48.70;;;;;;5022816;28;20438;-71
2022/09/17 07:41:26;;;;;;;1.90;1.00;;;13.10;47.20;;;;;;5019472;28;20618;-72
2022/09/17 07:43:53;;;;;;;2.00;1.10;;;13.10;47.80;;;;;;5016581;28;20554;-71
2022/09/17 07:46:20;;;;;;;2.00;1.10;;;13.00;47.10;;;;;;5023910;28;20320;-71
2022/09/17 07:48:46;;;;;;;2.00;1.10;;;12.70;49.30;;;;;;5017194;28;20432;-71
2022/09/17 07:51:21;;;;;;;2.10;1.20;;;12.40;49.80;;;;;;5017563;28;21013;-71
2022/09/17 07:53:49;;;;;;;2.10;1.20;;;13.00;51.30;;;;;;5019681;28;20485;-71
2022/09/17 07:56:15;;;;;;;2.00;1.10;;;13.00;51.30;;;;;;5019132;28;20510;-74
2022/09/17 07:58:41;;;;;;;2.00;1.20;;;12.80;49.90;;;;;;5023585;28;20463;-72
2022/09/17 08:01:09;;;;;;;2.00;1.10;;;12.70;51.00;;;;;;5014887;28;21018;-71
2022/09/17 08:03:35;;;;;;;2.00;1.10;;;12.40;52.40;;;;;;5026118;28;20446;-72
2022/09/17 08:06:09;;;;;;;2.00;1.10;;;12.10;55.10;;;;;;5022455;28;20464;-72
2022/09/17 08:08:36;;;;;;;2.00;1.00;;;12.40;55.10;;;;;;5026499;28;20436;-71
2022/09/17 08:11:07;;;;;;;2.03;1.17;;;13.10;52.20;;;;;;5029277;28;20546;-71
2022/09/17 08:13:33;;;;;;;2.00;1.10;;;12.90;52.10;;;;;;5029399;28;20538;-71
2022/09/17 08:16:18;;;;;;;2.00;1.10;;;12.80;54.50;;;;;;5015098;28;20424;-71
2022/09/17 08:18:45;;;;;;;2.00;1.10;;;12.70;54.20;;;;;;5027008;28;20405;-71
2022/09/17 08:21:13;;;;;;;2.00;1.10;;;12.70;56.00;;;;;;5030860;28;20927;-71
2022/09/17 08:23:40;;;;;;;1.90;1.00;;;13.40;55.20;;;;;;5031131;28;20962;-72
2022/09/17 08:26:10;;;;;;;2.00;1.20;;;13.20;54.00;;;;;;5031550;28;20404;-71
2022/09/17 08:28:36;;;;;;;2.00;1.10;;;14.10;52.60;;;;;;5036179;28;20785;-71
2022/09/17 08:31:04;;;;;;;2.00;1.17;;;14.10;49.20;;;;;;5031635;28;20481;-72
2022/09/17 08:33:32;;;;;;;1.93;1.00;;;13.00;56.30;;;;;;5035361;28;20172;-71
2022/09/17 08:35:58;;;;;;;1.90;1.10;;;13.30;56.90;;;;;;5035336;28;20415;-71
2022/09/17 08:38:25;;;;;;;2.00;1.10;;;12.70;55.70;;;;;;5035410;28;20414;-72
2022/09/17 08:41:10;;;;;;;2.10;1.20;;;13.50;55.70;;;;;;5033053;28;20520;-71
2022/09/17 08:43:53;;;;;;;1.90;1.07;;;13.00;55.80;;;;;;5034946;28;20938;-71
2022/09/17 08:46:19;;;;;;;1.93;1.10;;;13.40;52.50;;;;;;5028365;28;20439;-72
2022/09/17 08:49:11;;;;;;;2.00;1.13;;;13.40;53.00;;;;;;5030638;28;20475;-72
2022/09/17 08:51:55;;;;;;;1.97;1.07;;;13.70;52.00;;;;;;5029376;28;20477;-70
2022/09/17 08:54:44;;;;;;;1.90;1.10;;;13.60;51.90;;;;;;5029879;28;20411;-71
2022/09/17 08:57:35;;;;;;;1.90;1.10;;;13.70;52.80;;;;;;5021014;28;20969;-72
2022/09/17 09:00:13;;;;;;;2.00;1.10;;;14.20;49.20;;;;;;5020996;28;20436;-72
2022/09/17 09:02:38;;;;;;;1.90;1.10;;;14.30;49.90;;;;;;5025949;28;20444;-72
2022/09/17 09:05:12;;;;;;;1.93;1.10;;;14.40;47.70;;;;;;5014851;28;20420;-72
2022/09/17 09:07:43;;;;;;;1.90;1.10;;;14.20;48.20;;;;;;5027464;28;20183;-71
2022/09/17 09:10:12;;;;;;;1.90;1.10;;;13.60;50.80;;;;;;5034640;28;20944;-71
2022/09/17 09:12:40;;;;;;;1.80;1.00;;;12.70;54.10;;;;;;5026598;28;20455;-71
2022/09/17 09:15:18;;;;;;;1.83;1.10;;;13.20;53.00;;;;;;5027989;28;20796;-71
2022/09/17 09:17:45;;;;;;;1.90;1.10;;;12.90;50.10;;;;;;5027184;28;20433;-73
2022/09/17 09:20:19;;;;;;;1.90;1.03;;;13.20;53.60;;;;;;5032014;28;20430;-71
2022/09/17 09:22:51;;;;;;;1.93;1.10;;;13.00;54.00;;;;;;5020903;28;20436;-74
2022/09/17 09:25:27;;;;;;;1.90;1.10;;;13.10;52.20;;;;;;5025932;28;20435;-72
2022/09/17 09:28:02;;;;;;;1.90;1.03;;;13.50;52.70;;;;;;5037380;28;20436;-72
2022/09/17 09:30:57;;;;;;;2.00;1.20;;;13.30;52.10;;;;;;5025708;28;20469;-72
2022/09/17 09:33:31;;;;;;;1.87;1.10;;;13.40;52.80;;;;;;5016480;28;20488;-72
2022/09/17 09:35:58;;;;;;;1.80;1.00;;;14.80;51.10;;;;;;5029803;28;20442;-73
2022/09/17 09:38:42;;;;;;;1.97;1.10;;;13.90;49.70;;;;;;5030747;28;20444;-72
2022/09/17 09:41:14;;;;;;;2.00;1.17;;;13.40;51.70;;;;;;5025411;28;20451;-73
2022/09/17 09:44:03;;;;;;;2.00;1.20;;;13.60;50.60;;;;;;5033943;28;20492;-71
2022/09/17 09:46:56;;;;;;;2.00;1.20;;;13.80;49.50;;;;;;5013958;28;20934;-72
2022/09/17 09:49:36;;;;;;;2.00;1.10;;;13.60;48.50;;;;;;5006018;28;20759;-72
2022/09/17 09:52:28;;;;;;;2.00;1.20;;;13.30;45.00;;;;;;5013502;28;20468;-71
2022/09/17 09:54:59;;;;;;;2.00;1.10;;;12.80;46.70;;;;;;5015077;28;20416;-73
2022/09/17 09:57:48;;;;;;;2.00;1.20;;;13.00;47.40;;;;;;5013986;28;20445;-72
2022/09/17 10:00:36;;;;;;;1.90;1.00;;;13.20;47.80;;;;;;5014215;28;20450;-73
2022/09/17 10:03:21;;;;;;;2.00;1.10;;;13.20;48.00;;;;;;5013743;28;20908;-73
2022/09/17 10:05:59;;;;;;;2.00;1.10;;;13.60;47.20;;;;;;5014683;28;20416;-70
2022/09/17 10:08:27;;;;;;;2.00;1.10;;;13.70;47.40;;;;;;5021355;28;20414;-72
2022/09/17 10:10:55;;;;;;;2.00;1.10;;;14.00;45.30;;;;;;5025480;28;20464;-72
2022/09/17 10:13:21;;;;;;;2.00;1.17;;;13.70;44.90;;;;;;5030860;28;20427;-72
2022/09/17 10:15:47;;;;;;;2.00;1.10;;;13.70;45.20;;;;;;5030137;28;20432;-72
2022/09/17 10:18:21;;;;;;;2.00;1.10;;;14.10;42.30;;;;;;5025348;28;21170;-73
2022/09/17 10:21:00;;;;;;;2.00;1.13;;;14.20;42.30;;;;;;5023416;28;20598;-72
2022/09/17 10:23:32;;;;;;;1.90;1.00;;;14.30;43.20;;;;;;5018007;28;20955;-72
2022/09/17 10:25:58;;;;;;;2.00;1.10;;;14.30;42.90;;;;;;5014595;28;20432;-72
2022/09/17 10:28:44;;;;;;;2.10;1.20;;;13.90;43.20;;;;;;5014976;28;20490;-72
2022/09/17 10:31:10;;;;;;;2.00;1.10;;;13.50;43.10;;;;;;5030861;28;20225;-72
2022/09/17 10:33:50;;;;;;;2.00;1.10;;;13.40;44.50;;;;;;5022667;28;20820;-72
2022/09/17 10:36:16;;;;;;;2.00;1.10;;;13.50;44.20;;;;;;5018897;28;20422;-72
2022/09/17 10:38:45;;;;;;;1.90;1.00;;;13.50;43.50;;;;;;5014460;28;20424;-73
2022/09/17 10:41:20;;;;;;;2.00;1.13;;;13.30;43.40;;;;;;5016077;28;20211;-72
2022/09/17 10:43:47;;;;;;;2.00;1.10;;;13.70;42.60;;;;;;5018055;28;20511;-73
2022/09/17 10:46:16;;;;;;;2.10;1.20;;;13.90;42.70;;;;;;5029721;28;20997;-72
2022/09/17 10:49:29;;;;;;;2.00;1.20;;;13.70;41.90;;;;;;5021622;28;20434;-72
2022/09/17 10:52:10;;;;;;;2.10;1.20;;;13.90;42.00;;;;;;5003411;28;20484;-73
2022/09/17 10:54:58;;;;;;;2.00;1.10;;;13.70;40.00;;;;;;5020012;28;20456;-72
2022/09/17 10:58:02;;;;;;;1.93;1.00;;;13.60;40.80;;;;;;5020880;28;20429;-72
2022/09/17 11:00:43;;;;;;;2.00;1.10;;;13.80;41.20;;;;;;5008738;28;20437;-73
2022/09/17 11:03:35;;;;;;;1.97;1.10;;;14.50;39.50;;;;;;5014227;28;20941;-72
2022/09/17 11:06:22;;;;;;;2.00;1.10;;;14.50;38.10;;;;;;5019939;28;20422;-73
2022/09/17 11:09:15;;;;;;;2.00;1.20;;;14.40;38.60;;;;;;5015856;28;20927;-72
2022/09/17 11:11:58;;;;;;;2.73;1.30;;;13.90;39.70;;;;;;5016111;28;20496;-72
2022/09/17 11:14:48;;;;;;;2.00;1.10;;;14.10;40.80;;;;;;5018573;28;21026;-73
2022/09/17 11:17:33;;;;;;;2.03;1.13;;;14.30;40.20;;;;;;5023419;28;20419;-71
2022/09/17 11:20:22;;;;;;;1.90;1.00;;;14.60;38.30;;;;;;5015582;28;20432;-72
2022/09/17 11:22:51;;;;;;;2.00;1.10;;;13.80;38.80;;;;;;5027307;28;20938;-73
2022/09/17 11:25:42;;;;;;;2.00;1.10;;;14.00;41.50;;;;;;5023349;28;20481;-72
2022/09/17 11:28:22;;;;;;;2.00;1.20;;;14.40;37.20;;;;;;5027842;28;20429;-73
2022/09/17 11:30:56;;;;;;;2.00;1.10;;;14.80;37.50;;;;;;5025654;28;20467;-73
2022/09/17 11:33:41;;;;;;;1.90;1.00;;;15.30;37.30;;;;;;5016148;28;20982;-73
2022/09/17 11:36:35;;;;;;;2.00;1.20;;;16.70;33.20;;;;;;5022040;28;20431;-72
2022/09/17 11:39:11;;;;;;;2.10;1.30;;;15.80;32.60;;;;;;5028010;28;20426;-71
2022/09/17 11:41:41;;;;;;;1.90;1.10;;;15.30;35.80;;;;;;5024744;28;20457;-71
2022/09/17 11:44:15;;;;;;;2.10;1.20;;;15.40;35.00;;;;;;5018387;28;20444;-72
2022/09/17 11:46:47;;;;;;;1.90;1.10;;;15.10;35.90;;;;;;5015916;28;20415;-71
2022/09/17 11:49:37;;;;;;;2.00;1.20;;;15.70;37.70;;;;;;5016036;28;20515;-73
2022/09/17 11:52:10;;;;;;;2.00;1.10;;;15.00;36.50;;;;;;5016172;28;20557;-72
2022/09/17 11:54:53;;;;;;;2.00;1.10;;;15.50;35.80;;;;;;5022282;28;20420;-72
2022/09/17 11:57:24;;;;;;;2.10;1.20;;;15.20;32.00;;;;;;5020947;28;20426;-72
2022/09/17 12:00:12;;;;;;;2.00;1.10;;;14.80;34.20;;;;;;5020493;28;20800;-73
2022/09/17 12:02:56;;;;;;;2.10;1.20;;;15.50;34.50;;;;;;5017410;28;20839;-72
2022/09/17 12:05:53;;;;;;;2.10;1.20;;;16.30;31.40;;;;;;5028126;28;20427;-73
2022/09/17 12:08:44;;;;;;;2.00;1.10;;;16.30;32.10;;;;;;5021165;28;20462;-73
2022/09/17 12:11:17;;;;;;;2.00;1.10;;;16.20;32.50;;;;;;5023115;28;20525;-73
2022/09/17 12:13:59;;;;;;;2.00;1.10;;;15.80;32.90;;;;;;5013618;28;20822;-73
2022/09/17 12:16:42;;;;;;;2.00;1.10;;;15.90;31.50;;;;;;5029948;28;20415;-73
2022/09/17 12:19:24;;;;;;;2.10;1.30;;;15.30;32.30;;;;;;5022772;28;20423;-74
2022/09/17 12:21:58;;;;;;;2.10;1.20;;;15.80;31.40;;;;;;5025043;28;20450;-71
2022/09/17 12:24:25;;;;;;;1.90;1.00;;;16.10;30.60;;;;;;5018054;28;20950;-72
2022/09/17 12:27:07;;;;;;;2.03;1.20;;;16.20;30.50;;;;;;5029655;28;20481;-73
2022/09/17 12:29:57;;;;;;;2.03;1.20;;;16.10;30.00;;;;;;5026320;28;20947;-73
2022/09/17 12:32:47;;;;;;;2.03;1.20;;;16.40;30.60;;;;;;5016999;28;20453;-73
2022/09/17 12:35:37;;;;;;;2.10;1.20;;;16.30;31.70;;;;;;5014766;28;20965;-73
2022/09/17 12:38:21;;;;;;;2.00;1.10;;;16.00;31.80;;;;;;5014479;28;20861;-73
2022/09/17 12:41:01;;;;;;;2.00;1.10;;;16.40;29.90;;;;;;5020897;28;20436;-72
2022/09/17 12:43:57;;;;;;;2.07;1.20;;;16.50;30.70;;;;;;5017471;28;20427;-73
2022/09/17 12:46:44;;;;;;;2.00;1.17;;;16.70;30.40;;;;;;5014733;28;20935;-73
2022/09/17 12:49:23;;;;;;;2.07;1.20;;;17.00;30.30;;;;;;5023007;28;20423;-73
2022/09/17 12:51:55;;;;;;;2.00;1.10;;;16.00;30.70;;;;;;5025491;28;20459;-72
2022/09/17 12:54:32;;;;;;;2.10;1.20;;;15.80;31.50;;;;;;5027781;28;20764;-72
2022/09/17 12:57:01;;;;;;;2.00;1.20;;;15.90;31.60;;;;;;5012555;28;20424;-73
2022/09/17 12:59:32;;;;;;;2.00;1.10;;;16.40;32.50;;;;;;5011591;28;20955;-73
2022/09/17 13:02:21;;;;;;;2.00;1.20;;;16.50;31.00;;;;;;5012791;28;21279;-73
2022/09/17 13:05:22;;;;;;;2.10;1.20;;;16.50;31.00;;;;;;5021592;28;20509;-72
2022/09/17 13:08:15;;;;;;;1.93;1.10;;;17.20;29.00;;;;;;5017528;28;20431;-73
2022/09/17 13:11:05;;;;;;;2.00;1.10;;;16.40;30.40;;;;;;5024289;28;20476;-72
2022/09/17 13:13:46;;;;;;;2.10;1.20;;;16.50;31.30;;;;;;5016614;28;20467;-72
2022/09/17 13:16:32;;;;;;;2.03;1.20;;;15.90;31.50;;;;;;5021463;28;20426;-73